createdAt,value
2019-06-20T00:00:25.813Z,0.00
2019-06-20T00:01:25.792Z,0.00
2019-06-20T00:02:26.036Z,0.00
2019-06-20T00:03:25.782Z,0.00
2019-06-20T00:04:25.758Z,0.00
2019-06-20T00:05:25.952Z,0.00
2019-06-20T00:06:25.747Z,0.00
2019-06-20T00:07:25.774Z,0.00
2019-06-20T00:08:26.159Z,0.00
2019-06-20T00:09:25.715Z,0.00
2019-06-20T00:10:25.704Z,5.62
2019-06-20T00:11:25.681Z,5.62
2019-06-20T00:12:25.885Z,5.62
2019-06-20T00:13:25.675Z,5.62
2019-06-20T00:14:25.650Z,5.62
2019-06-20T00:15:25.892Z,5.62
2019-06-20T00:16:25.643Z,5.62
2019-06-20T00:17:25.623Z,5.62
2019-06-20T00:18:25.607Z,5.62
2019-06-20T00:19:25.773Z,5.62
2019-06-20T00:20:25.588Z,5.62
2019-06-20T00:21:25.574Z,5.62
2019-06-20T00:22:33.564Z,5.62
2019-06-20T00:23:25.843Z,5.62
2019-06-20T00:24:25.558Z,5.62
2019-06-20T00:25:25.527Z,5.62
2019-06-20T00:26:25.916Z,5.62
2019-06-20T00:27:25.502Z,11.25
2019-06-20T00:28:25.491Z,11.25
2019-06-20T00:29:25.785Z,11.25
2019-06-20T00:30:25.493Z,11.25
2019-06-20T00:31:25.463Z,11.25
2019-06-20T00:32:25.762Z,11.25
2019-06-20T00:33:25.441Z,11.25
2019-06-20T00:34:25.441Z,11.25
2019-06-20T00:35:25.760Z,11.25
2019-06-20T00:36:25.427Z,11.25
2019-06-20T00:37:25.402Z,11.25
2019-06-20T00:38:25.757Z,16.88
2019-06-20T00:39:25.375Z,16.88
2019-06-20T00:40:25.372Z,16.88
2019-06-20T00:41:25.668Z,16.88
2019-06-20T00:42:25.352Z,16.88
2019-06-20T00:43:25.336Z,16.88
2019-06-20T00:44:25.605Z,16.88
2019-06-20T00:45:25.345Z,16.88
2019-06-20T00:46:25.300Z,16.88
2019-06-20T00:47:25.611Z,22.50
2019-06-20T00:48:25.269Z,22.50
2019-06-20T00:49:25.257Z,22.50
2019-06-20T00:50:25.592Z,22.50
2019-06-20T00:51:25.272Z,22.50
2019-06-20T00:52:25.224Z,22.50
2019-06-20T00:53:25.536Z,22.50
2019-06-20T00:54:32.691Z,22.50
2019-06-20T00:55:25.524Z,28.12
2019-06-20T00:56:25.443Z,28.12
2019-06-20T00:57:25.178Z,28.12
2019-06-20T00:58:25.212Z,28.12
2019-06-20T00:59:25.443Z,28.12
2019-06-20T01:00:25.145Z,28.12
2019-06-20T01:01:25.124Z,33.75
2019-06-20T01:02:25.474Z,33.75
2019-06-20T01:03:25.106Z,33.75
2019-06-20T01:04:25.102Z,33.75
2019-06-20T01:05:25.389Z,33.75
2019-06-20T01:06:25.088Z,33.75
2019-06-20T01:07:25.061Z,39.38
2019-06-20T01:08:25.362Z,39.38
2019-06-20T01:09:25.036Z,39.38
2019-06-20T01:10:25.061Z,39.38
2019-06-20T01:11:25.403Z,39.38
2019-06-20T01:12:25.010Z,45.00
2019-06-20T01:13:33.427Z,45.00
2019-06-20T01:14:26.336Z,45.00
2019-06-20T01:15:24.972Z,45.00
2019-06-20T01:16:24.966Z,45.00
2019-06-20T01:17:25.334Z,50.62
2019-06-20T01:18:24.943Z,50.62
2019-06-20T01:19:24.922Z,50.62
2019-06-20T01:20:25.220Z,50.62
2019-06-20T01:21:24.915Z,50.62
2019-06-20T01:22:24.897Z,56.25
2019-06-20T01:23:25.212Z,56.25
2019-06-20T01:24:24.875Z,56.25
2019-06-20T01:25:24.858Z,56.25
2019-06-20T01:26:32.336Z,61.88
2019-06-20T01:27:25.158Z,61.88
2019-06-20T01:28:24.837Z,61.88
2019-06-20T01:29:24.881Z,61.88
2019-06-20T01:30:24.806Z,61.88
2019-06-20T01:31:24.800Z,67.50
2019-06-20T01:32:25.115Z,67.50
2019-06-20T01:33:24.773Z,67.50
2019-06-20T01:34:24.770Z,67.50
2019-06-20T01:35:25.083Z,73.12
2019-06-20T01:36:24.780Z,73.12
2019-06-20T01:37:24.735Z,73.12
2019-06-20T01:38:25.001Z,73.12
2019-06-20T01:39:24.710Z,73.12
2019-06-20T01:40:24.701Z,78.75
2019-06-20T01:41:25.029Z,78.75
2019-06-20T01:42:24.682Z,78.75
2019-06-20T01:43:24.657Z,78.75
2019-06-20T01:44:24.964Z,84.38
2019-06-20T01:45:24.648Z,84.38
2019-06-20T01:46:24.623Z,84.38
2019-06-20T01:47:24.985Z,84.38
2019-06-20T01:48:24.608Z,84.38
2019-06-20T01:49:24.592Z,90.00
2019-06-20T01:50:24.871Z,90.00
2019-06-20T01:51:24.570Z,90.00
2019-06-20T01:52:24.569Z,90.00
2019-06-20T01:53:24.894Z,95.62
2019-06-20T01:54:24.538Z,95.62
2019-06-20T01:55:24.560Z,95.62
2019-06-20T01:56:24.846Z,95.62
2019-06-20T01:57:24.508Z,101.25
2019-06-20T01:58:32.453Z,101.25
2019-06-20T01:59:24.802Z,101.25
2019-06-20T02:00:24.474Z,101.25
2019-06-20T02:01:24.461Z,106.88
2019-06-20T02:02:24.455Z,106.88
2019-06-20T02:03:24.441Z,112.50
2019-06-20T02:04:24.768Z,112.50
2019-06-20T02:05:24.424Z,112.50
2019-06-20T02:06:24.446Z,118.12
2019-06-20T02:07:27.994Z,118.12
2019-06-20T02:08:24.385Z,118.12
2019-06-20T02:09:24.375Z,118.12
2019-06-20T02:10:24.704Z,123.75
2019-06-20T02:11:24.350Z,123.75
2019-06-20T02:12:24.344Z,123.75
2019-06-20T02:13:24.617Z,123.75
2019-06-20T02:14:24.335Z,129.38
2019-06-20T02:15:24.313Z,129.38
2019-06-20T02:16:24.291Z,129.38
2019-06-20T02:17:24.633Z,129.38
2019-06-20T02:18:24.274Z,135.00
2019-06-20T02:19:24.264Z,135.00
2019-06-20T02:20:24.646Z,135.00
2019-06-20T02:21:24.237Z,140.62
2019-06-20T02:22:24.235Z,140.62
2019-06-20T02:23:24.530Z,135.00
2019-06-20T02:24:24.434Z,140.62
2019-06-20T02:25:24.209Z,146.25
2019-06-20T02:26:24.497Z,151.88
2019-06-20T02:27:24.168Z,151.88
2019-06-20T02:28:24.159Z,151.88
2019-06-20T02:29:24.487Z,151.88
2019-06-20T02:31:34.246Z,157.50
2019-06-20T02:32:34.191Z,157.50
2019-06-20T02:33:33.894Z,168.75
2019-06-20T02:34:34.163Z,174.38
2019-06-20T02:35:33.867Z,174.38
2019-06-20T02:36:33.859Z,180.00
2019-06-20T02:37:34.133Z,180.00
2019-06-20T02:38:33.830Z,180.00
2019-06-20T02:39:33.822Z,185.62
2019-06-20T02:40:34.152Z,185.62
2019-06-20T02:41:33.837Z,185.62
2019-06-20T02:42:34.103Z,191.25
2019-06-20T02:43:34.143Z,191.25
2019-06-20T02:44:33.763Z,196.88
2019-06-20T02:45:33.760Z,196.88
2019-06-20T02:46:34.057Z,202.50
2019-06-20T02:47:33.764Z,208.12
2019-06-20T02:48:33.721Z,208.12
2019-06-20T02:49:33.840Z,208.12
2019-06-20T02:50:33.692Z,213.75
2019-06-20T02:51:33.686Z,219.38
2019-06-20T02:52:34.006Z,219.38
2019-06-20T02:53:33.678Z,225.00
2019-06-20T02:54:33.648Z,225.00
2019-06-20T02:55:33.909Z,225.00
2019-06-20T02:56:33.627Z,230.62
2019-06-20T02:57:33.616Z,230.62
2019-06-20T02:58:33.964Z,230.62
2019-06-20T02:59:33.593Z,236.25
2019-06-20T03:00:33.580Z,241.88
2019-06-20T03:01:33.904Z,247.50
2019-06-20T03:03:44.184Z,247.50
2019-06-20T03:04:45.725Z,247.50
2019-06-20T03:05:43.813Z,253.12
2019-06-20T03:06:43.845Z,258.75
2019-06-20T03:07:44.108Z,264.38
2019-06-20T03:08:43.788Z,270.00
2019-06-20T03:09:43.787Z,275.62
2019-06-20T03:10:44.043Z,281.25
2019-06-20T03:11:43.749Z,292.50
2019-06-20T03:12:43.736Z,303.75
2019-06-20T03:13:44.028Z,309.38
2019-06-20T03:14:45.669Z,315.00
2019-06-20T03:15:43.729Z,320.62
2019-06-20T03:16:44.027Z,331.88
2019-06-20T03:17:43.680Z,343.12
2019-06-20T03:18:43.710Z,343.12
2019-06-20T03:19:43.901Z,331.88
2019-06-20T03:20:43.680Z,326.25
2019-06-20T03:21:43.626Z,331.88
2019-06-20T03:22:43.847Z,337.50
2019-06-20T03:23:43.611Z,337.50
2019-06-20T03:24:43.597Z,354.38
2019-06-20T03:25:43.881Z,360.00
2019-06-20T03:26:43.584Z,365.62
2019-06-20T03:27:43.610Z,388.12
2019-06-20T03:28:43.767Z,399.38
2019-06-20T03:29:43.541Z,438.75
2019-06-20T03:30:43.537Z,466.88
2019-06-20T03:31:43.944Z,438.75
2019-06-20T03:32:43.511Z,405.00
2019-06-20T03:33:43.512Z,388.12
2019-06-20T03:34:51.032Z,388.12
2019-06-20T03:35:43.710Z,382.50
2019-06-20T03:36:43.476Z,371.25
2019-06-20T03:37:43.460Z,360.00
2019-06-20T03:38:43.723Z,365.62
2019-06-20T03:39:43.766Z,365.62
2019-06-20T03:40:43.538Z,371.25
2019-06-20T03:41:43.415Z,376.88
2019-06-20T03:42:43.732Z,382.50
2019-06-20T03:43:43.394Z,388.12
2019-06-20T03:44:43.386Z,393.75
2019-06-20T03:45:43.685Z,393.75
2019-06-20T03:46:43.357Z,388.12
2019-06-20T03:47:43.382Z,326.25
2019-06-20T03:48:43.668Z,360.00
2019-06-20T03:49:43.595Z,399.38
2019-06-20T03:50:43.312Z,343.12
2019-06-20T03:51:43.558Z,343.12
2019-06-20T03:52:43.287Z,393.75
2019-06-20T03:53:43.279Z,416.25
2019-06-20T03:54:43.501Z,438.75
2019-06-20T03:55:43.258Z,444.38
2019-06-20T03:56:43.245Z,444.38
2019-06-20T03:57:43.539Z,450.00
2019-06-20T03:58:43.255Z,455.62
2019-06-20T03:59:43.205Z,466.88
2019-06-20T04:00:43.523Z,472.50
2019-06-20T04:01:43.191Z,472.50
2019-06-20T04:02:43.173Z,483.75
2019-06-20T04:03:43.514Z,483.75
2019-06-20T04:04:43.156Z,483.75
2019-06-20T04:05:43.135Z,478.12
2019-06-20T04:06:50.635Z,483.75
2019-06-20T04:07:43.479Z,489.38
2019-06-20T04:08:43.470Z,495.00
2019-06-20T04:09:43.131Z,483.75
2019-06-20T04:10:43.081Z,461.25
2019-06-20T04:11:43.354Z,478.12
2019-06-20T04:12:43.065Z,489.38
2019-06-20T04:13:43.163Z,489.38
2019-06-20T04:14:43.320Z,489.38
2019-06-20T04:15:43.074Z,483.75
2019-06-20T04:16:43.022Z,489.38
2019-06-20T04:17:43.337Z,483.75
2019-06-20T04:18:42.999Z,478.12
2019-06-20T04:19:42.992Z,472.50
2019-06-20T04:20:43.355Z,466.88
2019-06-20T04:21:43.000Z,455.62
2019-06-20T04:22:42.956Z,455.62
2019-06-20T04:23:43.203Z,455.62
2019-06-20T04:24:42.936Z,455.62
2019-06-20T04:25:42.915Z,455.62
2019-06-20T04:26:43.223Z,455.62
2019-06-20T04:27:42.909Z,455.62
2019-06-20T04:28:42.883Z,461.25
2019-06-20T04:29:43.125Z,455.62
2019-06-20T04:30:42.869Z,444.38
2019-06-20T04:31:42.860Z,450.00
2019-06-20T04:32:43.166Z,444.38
2019-06-20T04:33:42.842Z,444.38
2019-06-20T04:34:42.825Z,444.38
2019-06-20T04:35:43.171Z,444.38
2019-06-20T04:36:42.837Z,444.38
2019-06-20T04:37:42.800Z,438.75
2019-06-20T04:38:50.142Z,416.25
2019-06-20T04:39:43.133Z,421.88
2019-06-20T04:40:42.756Z,450.00
2019-06-20T04:41:42.743Z,455.62
2019-06-20T04:42:43.048Z,472.50
2019-06-20T04:43:42.722Z,478.12
2019-06-20T04:44:42.713Z,478.12
2019-06-20T04:45:43.018Z,483.75
2019-06-20T04:46:42.701Z,489.38
2019-06-20T04:47:42.725Z,495.00
2019-06-20T04:48:42.927Z,495.00
2019-06-20T04:49:42.656Z,500.62
2019-06-20T04:50:42.645Z,500.62
2019-06-20T04:51:42.637Z,511.88
2019-06-20T04:52:42.933Z,517.50
2019-06-20T04:53:42.624Z,528.75
2019-06-20T04:54:42.604Z,540.00
2019-06-20T04:55:42.946Z,545.62
2019-06-20T04:56:42.592Z,540.00
2019-06-20T04:57:42.571Z,562.50
2019-06-20T04:58:42.921Z,573.75
2019-06-20T04:59:42.560Z,585.00
2019-06-20T05:00:42.539Z,590.62
2019-06-20T05:01:42.544Z,596.25
2019-06-20T05:02:42.517Z,585.00
2019-06-20T05:03:42.799Z,579.38
2019-06-20T05:04:42.509Z,551.25
2019-06-20T05:05:42.479Z,534.38
2019-06-20T05:06:42.768Z,472.50
2019-06-20T05:07:42.465Z,466.88
2019-06-20T05:08:42.445Z,450.00
2019-06-20T05:09:42.753Z,416.25
2019-06-20T05:10:50.444Z,534.38
2019-06-20T05:11:42.740Z,545.62
2019-06-20T05:12:42.413Z,545.62
2019-06-20T05:13:42.483Z,551.25
2019-06-20T05:14:42.424Z,551.25
2019-06-20T05:15:52.126Z,556.88
2019-06-20T05:16:42.710Z,562.50
2019-06-20T05:17:42.354Z,562.50
2019-06-20T05:18:42.350Z,562.50
2019-06-20T05:19:42.676Z,562.50
2019-06-20T05:20:42.378Z,562.50
2019-06-20T05:21:42.317Z,556.88
2019-06-20T05:22:42.620Z,568.12
2019-06-20T05:23:42.292Z,568.12
2019-06-20T05:24:42.279Z,568.12
2019-06-20T05:25:42.556Z,568.12
2019-06-20T05:26:42.283Z,568.12
2019-06-20T05:27:42.242Z,562.50
2019-06-20T05:28:42.526Z,568.12
2019-06-20T05:29:42.266Z,568.12
2019-06-20T05:30:42.210Z,573.75
2019-06-20T05:31:42.492Z,579.38
2019-06-20T05:32:42.186Z,585.00
2019-06-20T05:33:42.172Z,585.00
2019-06-20T05:34:42.451Z,590.62
2019-06-20T05:35:42.159Z,596.25
2019-06-20T05:36:42.156Z,601.88
2019-06-20T05:37:42.413Z,601.88
2019-06-20T05:38:42.127Z,607.50
2019-06-20T05:39:42.113Z,607.50
2019-06-20T05:40:42.406Z,613.12
2019-06-20T05:41:42.459Z,618.75
2019-06-20T05:42:49.490Z,624.38
2019-06-20T05:43:42.394Z,630.00
2019-06-20T05:44:42.055Z,635.62
2019-06-20T05:45:46.164Z,641.25
2019-06-20T05:46:42.045Z,646.88
2019-06-20T05:47:42.028Z,658.12
2019-06-20T05:48:43.218Z,669.38
2019-06-20T05:49:42.001Z,680.62
2019-06-20T05:50:41.992Z,714.38
2019-06-20T05:51:41.982Z,753.75
2019-06-20T05:52:41.975Z,815.62
2019-06-20T05:53:42.280Z,866.25
2019-06-20T05:54:41.945Z,911.25
2019-06-20T05:55:41.935Z,928.12
2019-06-20T05:56:42.150Z,967.50
2019-06-20T05:57:41.918Z,1046.25
2019-06-20T05:58:41.916Z,1170.00
2019-06-20T05:59:42.183Z,1344.38
2019-06-20T06:00:41.893Z,1760.62
2019-06-20T06:01:41.878Z,2171.25
2019-06-20T06:02:41.865Z,2154.38
2019-06-20T06:03:41.850Z,1946.25
2019-06-20T06:04:42.944Z,1715.62
2019-06-20T06:05:41.827Z,1591.88
2019-06-20T06:06:41.817Z,1490.62
2019-06-20T06:07:42.059Z,1423.12
2019-06-20T06:08:41.793Z,1366.88
2019-06-20T06:09:41.819Z,1350.00
2019-06-20T06:10:42.073Z,1338.75
2019-06-20T06:11:41.811Z,1276.88
2019-06-20T06:12:41.755Z,1220.62
2019-06-20T06:13:41.965Z,1192.50
2019-06-20T06:14:49.519Z,1158.75
2019-06-20T06:15:42.457Z,1125.00
2019-06-20T06:16:44.117Z,1096.88
2019-06-20T06:17:42.113Z,1085.62
2019-06-20T06:18:41.716Z,1063.12
2019-06-20T06:19:41.691Z,1057.50
2019-06-20T06:20:44.815Z,1046.25
2019-06-20T06:21:41.722Z,1046.25
2019-06-20T06:22:44.620Z,1046.25
2019-06-20T06:23:41.957Z,1040.62
2019-06-20T06:24:41.625Z,1006.88
2019-06-20T06:25:41.629Z,990.00
2019-06-20T06:26:41.945Z,1012.50
2019-06-20T06:27:41.638Z,1018.12
2019-06-20T06:28:41.575Z,1018.12
2019-06-20T06:29:41.901Z,1023.75
2019-06-20T06:30:41.559Z,1051.88
2019-06-20T06:31:41.563Z,1046.25
2019-06-20T06:32:41.836Z,1035.00
2019-06-20T06:33:41.529Z,1040.62
2019-06-20T06:34:41.509Z,1051.88
2019-06-20T06:35:41.854Z,1046.25
2019-06-20T06:36:41.531Z,1068.75
2019-06-20T06:37:41.475Z,1085.62
2019-06-20T06:38:41.799Z,1108.12
2019-06-20T06:39:43.513Z,1085.62
2019-06-20T06:40:41.444Z,1085.62
2019-06-20T06:41:41.755Z,1074.38
2019-06-20T06:42:41.440Z,1080.00
2019-06-20T06:43:42.205Z,1164.38
2019-06-20T06:44:41.671Z,1220.62
2019-06-20T06:45:41.396Z,1209.38
2019-06-20T06:46:55.443Z,1220.62
2019-06-20T06:47:41.704Z,1248.75
2019-06-20T06:48:41.687Z,1344.38
2019-06-20T06:49:41.353Z,1451.25
2019-06-20T06:50:41.401Z,1496.25
2019-06-20T06:51:41.666Z,1586.25
2019-06-20T06:52:41.337Z,1704.38
2019-06-20T06:53:41.317Z,1687.50
2019-06-20T06:54:41.593Z,1496.25
2019-06-20T06:55:41.296Z,1327.50
2019-06-20T06:56:41.276Z,1215.00
2019-06-20T06:57:41.535Z,1158.75
2019-06-20T06:58:41.295Z,1158.75
2019-06-20T06:59:41.256Z,1299.38
2019-06-20T07:00:41.547Z,1473.75
2019-06-20T07:01:41.230Z,1535.62
2019-06-20T07:02:41.223Z,1580.62
2019-06-20T07:03:41.211Z,1620.00
2019-06-20T07:04:41.207Z,1636.88
2019-06-20T07:05:42.002Z,1636.88
2019-06-20T07:06:41.180Z,1636.88
2019-06-20T07:07:41.169Z,1665.00
2019-06-20T07:08:41.148Z,1687.50
2019-06-20T07:09:41.256Z,1738.12
2019-06-20T07:10:41.131Z,1732.50
2019-06-20T07:11:41.430Z,1766.25
2019-06-20T07:12:41.112Z,1800.00
2019-06-20T07:13:41.096Z,1816.88
2019-06-20T07:14:42.841Z,1811.25
2019-06-20T07:15:41.100Z,1839.38
2019-06-20T07:16:41.068Z,1890.00
2019-06-20T07:17:41.398Z,1906.88
2019-06-20T07:18:48.962Z,1923.75
2019-06-20T07:19:41.332Z,1918.12
2019-06-20T07:20:41.027Z,1935.00
2019-06-20T07:21:41.036Z,1929.38
2019-06-20T07:22:41.284Z,1951.88
2019-06-20T07:23:40.989Z,1923.75
2019-06-20T07:24:40.983Z,1901.25
2019-06-20T07:25:41.253Z,1940.62
2019-06-20T07:26:40.961Z,1968.75
2019-06-20T07:27:40.985Z,1963.12
2019-06-20T07:28:41.230Z,1991.25
2019-06-20T07:29:40.926Z,2013.75
2019-06-20T07:30:41.288Z,2092.50
2019-06-20T07:31:40.909Z,2143.12
2019-06-20T07:32:40.894Z,2143.12
2019-06-20T07:33:41.257Z,2182.50
2019-06-20T07:34:40.877Z,2160.00
2019-06-20T07:35:41.980Z,2143.12
2019-06-20T07:36:41.216Z,2092.50
2019-06-20T07:37:40.838Z,2030.62
2019-06-20T07:38:40.831Z,2154.38
2019-06-20T07:39:41.142Z,2221.88
2019-06-20T07:40:40.809Z,2210.62
2019-06-20T07:41:40.794Z,2210.62
2019-06-20T07:42:41.083Z,2176.88
2019-06-20T07:43:40.780Z,2205.00
2019-06-20T07:44:40.760Z,2238.75
2019-06-20T07:45:41.090Z,2255.62
2019-06-20T07:46:40.771Z,2199.38
2019-06-20T07:47:40.739Z,2176.88
2019-06-20T07:48:41.070Z,2193.75
2019-06-20T07:49:40.709Z,2233.12
2019-06-20T07:50:48.141Z,2295.00
2019-06-20T07:51:41.050Z,2300.62
2019-06-20T07:52:40.688Z,2272.50
2019-06-20T07:53:40.682Z,2227.50
2019-06-20T07:54:40.970Z,2148.75
2019-06-20T07:55:40.641Z,2165.62
2019-06-20T07:56:40.637Z,2283.75
2019-06-20T07:57:40.941Z,2340.00
2019-06-20T07:58:40.618Z,2340.00
2019-06-20T07:59:40.646Z,2221.88
2019-06-20T08:00:40.873Z,2266.88
2019-06-20T08:01:40.632Z,2368.12
2019-06-20T08:02:40.566Z,2424.38
2019-06-20T08:03:44.438Z,2452.50
2019-06-20T08:04:40.545Z,2351.25
2019-06-20T08:05:40.547Z,2238.75
2019-06-20T08:06:40.828Z,2261.25
2019-06-20T08:07:40.521Z,2272.50
2019-06-20T08:08:40.540Z,2373.75
2019-06-20T08:09:44.691Z,2356.88
2019-06-20T08:10:40.497Z,2289.38
2019-06-20T08:11:40.754Z,2300.62
2019-06-20T08:12:40.469Z,2345.62
2019-06-20T08:13:40.454Z,2340.00
2019-06-20T08:15:40.425Z,2401.88
2019-06-20T08:16:40.424Z,2210.62
2019-06-20T08:17:40.701Z,2435.62
2019-06-20T08:18:40.403Z,2418.75
2019-06-20T08:19:40.395Z,2486.25
2019-06-20T08:20:40.751Z,2514.38
2019-06-20T08:21:40.394Z,2508.75
2019-06-20T08:22:47.865Z,2486.25
2019-06-20T08:23:40.624Z,2452.50
2019-06-20T08:24:40.661Z,2503.12
2019-06-20T08:25:40.365Z,2531.25
2019-06-20T08:26:40.323Z,2570.62
2019-06-20T08:27:40.608Z,2570.62
2019-06-20T08:28:40.298Z,2604.38
2019-06-20T08:29:40.290Z,2638.12
2019-06-20T08:30:40.552Z,2593.12
2019-06-20T08:31:40.285Z,2531.25
2019-06-20T08:32:40.253Z,2520.00
2019-06-20T08:33:40.619Z,2565.00
2019-06-20T08:34:40.235Z,2598.75
2019-06-20T08:35:40.221Z,2531.25
2019-06-20T08:36:40.559Z,2615.62
2019-06-20T08:37:40.200Z,2643.75
2019-06-20T08:38:40.227Z,2621.25
2019-06-20T08:39:40.506Z,2671.88
2019-06-20T08:40:40.174Z,2660.62
2019-06-20T08:41:40.157Z,2610.00
2019-06-20T08:42:40.469Z,2638.12
2019-06-20T08:43:40.145Z,900.00
2019-06-20T08:44:40.137Z,2694.38
2019-06-20T08:45:40.465Z,2677.50
2019-06-20T08:46:40.132Z,2677.50
2019-06-20T08:47:40.120Z,2790.00
2019-06-20T08:48:40.390Z,1170.00
2019-06-20T08:49:40.110Z,2806.88
2019-06-20T08:50:40.075Z,2750.62
2019-06-20T08:51:40.339Z,2728.12
2019-06-20T08:52:40.042Z,2806.88
2019-06-20T08:53:40.034Z,2885.62
2019-06-20T08:54:47.633Z,2835.00
2019-06-20T08:55:40.278Z,928.12
2019-06-20T08:56:40.313Z,1102.50
2019-06-20T08:57:39.994Z,2497.50
2019-06-20T08:58:39.983Z,2598.75
2019-06-20T08:59:40.309Z,2694.38
2019-06-20T09:00:39.979Z,2750.62
2019-06-20T09:01:39.952Z,2835.00
2019-06-20T09:02:40.194Z,1102.50
2019-06-20T09:03:39.929Z,2126.25
2019-06-20T09:04:39.923Z,1068.75
2019-06-20T09:05:40.240Z,2964.38
2019-06-20T09:06:39.898Z,2941.88
2019-06-20T09:07:41.777Z,2925.00
2019-06-20T09:08:40.255Z,2908.12
2019-06-20T09:09:40.834Z,2863.12
2019-06-20T09:10:39.865Z,2227.50
2019-06-20T09:11:40.121Z,1597.50
2019-06-20T09:12:39.840Z,3121.88
2019-06-20T09:13:40.676Z,2002.50
2019-06-20T09:14:40.121Z,2536.88
2019-06-20T09:15:39.842Z,2908.12
2019-06-20T09:16:39.791Z,2913.75
2019-06-20T09:17:40.110Z,2970.00
2019-06-20T09:18:39.772Z,2970.00
2019-06-20T09:19:39.762Z,2919.38
2019-06-20T09:20:40.029Z,2840.62
2019-06-20T09:21:39.796Z,2812.50
2019-06-20T09:22:39.724Z,2925.00
2019-06-20T09:23:40.081Z,2851.88
2019-06-20T09:24:39.712Z,3003.75
2019-06-20T09:25:39.705Z,3003.75
2019-06-20T09:26:47.683Z,2970.00
2019-06-20T09:27:40.028Z,3048.75
2019-06-20T09:28:39.664Z,2902.50
2019-06-20T09:29:42.049Z,2998.12
2019-06-20T09:30:39.862Z,2981.25
2019-06-20T09:31:39.646Z,2992.50
2019-06-20T09:32:39.633Z,3076.88
2019-06-20T09:33:40.007Z,3026.25
2019-06-20T09:34:39.601Z,894.38
2019-06-20T09:35:39.589Z,956.25
2019-06-20T09:36:39.918Z,3127.50
2019-06-20T09:37:39.580Z,3020.62
2019-06-20T09:38:39.572Z,2970.00
2019-06-20T09:39:39.858Z,2840.62
2019-06-20T09:40:39.539Z,3093.75
2019-06-20T09:41:39.531Z,3071.25
2019-06-20T09:42:39.844Z,967.50
2019-06-20T09:43:39.519Z,3110.62
2019-06-20T09:44:39.502Z,916.88
2019-06-20T09:45:39.485Z,928.12
2019-06-20T09:46:39.478Z,939.38
2019-06-20T09:47:39.859Z,1811.25
2019-06-20T09:48:39.460Z,3088.12
2019-06-20T09:49:39.458Z,3138.75
2019-06-20T09:50:39.778Z,3150.00
2019-06-20T09:51:39.432Z,3155.62
2019-06-20T09:52:39.414Z,3105.00
2019-06-20T09:53:39.760Z,3161.25
2019-06-20T09:54:39.396Z,3009.38
2019-06-20T09:55:39.383Z,3020.62
2019-06-20T09:56:39.682Z,1361.25
2019-06-20T09:57:39.368Z,2705.62
2019-06-20T09:58:47.906Z,3206.25
2019-06-20T09:59:39.640Z,3099.38
2019-06-20T10:00:39.329Z,3240.00
2019-06-20T10:01:39.444Z,3189.38
2019-06-20T10:02:39.310Z,1136.25
2019-06-20T10:03:39.331Z,3093.75
2019-06-20T10:04:39.632Z,3133.12
2019-06-20T10:05:39.282Z,922.50
2019-06-20T10:06:39.273Z,945.00
2019-06-20T10:07:39.584Z,1051.88
2019-06-20T10:08:39.249Z,3211.88
2019-06-20T10:09:39.412Z,2823.75
2019-06-20T10:10:39.640Z,3065.62
2019-06-20T10:11:39.220Z,3127.50
2019-06-20T10:12:39.205Z,939.38
2019-06-20T10:13:39.489Z,916.88
2019-06-20T10:14:39.197Z,1006.88
2019-06-20T10:15:39.172Z,2469.38
2019-06-20T10:16:45.852Z,3054.38
2019-06-20T10:17:39.148Z,3071.25
2019-06-20T10:18:39.139Z,3093.75
2019-06-20T10:19:39.129Z,3133.12
2019-06-20T10:20:39.396Z,3144.38
2019-06-20T10:21:39.441Z,3138.75
2019-06-20T10:22:39.099Z,3088.12
2019-06-20T10:23:39.111Z,3099.38
2019-06-20T10:24:39.412Z,3031.88
2019-06-20T10:25:39.073Z,2936.25
2019-06-20T10:26:39.068Z,2930.62
2019-06-20T10:27:39.389Z,3060.00
2019-06-20T10:28:39.035Z,1687.50
2019-06-20T10:29:39.024Z,3144.38
2019-06-20T10:30:46.524Z,3121.88
2019-06-20T10:31:39.321Z,1901.25
2019-06-20T10:32:38.993Z,3076.88
2019-06-20T10:33:38.989Z,3093.75
2019-06-20T10:34:39.283Z,3121.88
2019-06-20T10:35:38.966Z,3093.75
2019-06-20T10:36:38.967Z,3076.88
2019-06-20T10:37:39.225Z,3088.12
2019-06-20T10:38:38.938Z,3031.88
2019-06-20T10:39:38.928Z,3116.25
2019-06-20T10:40:39.231Z,3048.75
2019-06-20T10:41:38.909Z,3020.62
2019-06-20T10:42:38.909Z,3054.38
2019-06-20T10:43:39.225Z,3054.38
2019-06-20T10:44:38.874Z,3031.88
2019-06-20T10:45:38.856Z,3020.62
2019-06-20T10:46:39.173Z,2986.88
2019-06-20T10:47:38.855Z,2964.38
2019-06-20T10:48:38.833Z,2998.12
2019-06-20T10:49:39.152Z,3003.75
2019-06-20T10:50:38.817Z,3009.38
2019-06-20T10:51:38.796Z,3031.88
2019-06-20T10:52:39.099Z,3082.50
2019-06-20T10:53:38.784Z,3076.88
2019-06-20T10:54:38.780Z,3065.62
2019-06-20T10:55:40.596Z,3065.62
2019-06-20T10:56:38.744Z,3088.12
2019-06-20T10:57:41.326Z,3138.75
2019-06-20T10:58:41.464Z,3065.62
2019-06-20T10:59:39.893Z,3003.75
2019-06-20T11:00:40.038Z,3003.75
2019-06-20T11:01:39.868Z,3026.25
2019-06-20T11:02:47.055Z,3093.75
2019-06-20T11:03:39.285Z,3088.12
2019-06-20T11:04:40.494Z,3043.12
2019-06-20T11:05:39.301Z,3093.75
2019-06-20T11:06:39.879Z,3071.25
2019-06-20T11:07:40.343Z,3054.38
2019-06-20T11:08:39.139Z,3065.62
2019-06-20T11:09:40.170Z,3026.25
2019-06-20T11:10:40.349Z,3048.75
2019-06-20T11:11:39.862Z,3003.75
2019-06-20T11:12:45.613Z,3060.00
2019-06-20T11:13:39.519Z,1569.38
2019-06-20T11:14:39.129Z,973.12
2019-06-20T11:15:39.253Z,939.38
2019-06-20T11:16:40.108Z,1006.88
2019-06-20T11:17:39.176Z,2992.50
2019-06-20T11:18:39.966Z,2401.88
2019-06-20T11:19:39.730Z,1451.25
2019-06-20T11:20:39.497Z,2970.00
2019-06-20T11:21:39.759Z,3003.75
2019-06-20T11:22:39.877Z,3060.00
2019-06-20T11:23:39.413Z,1170.00
2019-06-20T11:24:39.214Z,838.12
2019-06-20T11:25:40.170Z,838.12
2019-06-20T11:26:39.385Z,900.00
2019-06-20T11:27:38.753Z,2874.38
2019-06-20T11:28:39.293Z,2868.75
2019-06-20T11:29:38.408Z,2919.38
2019-06-20T11:30:53.491Z,3031.88
2019-06-20T11:31:43.416Z,3015.00
2019-06-20T11:32:39.418Z,3065.62
2019-06-20T11:33:39.033Z,3071.25
2019-06-20T11:34:47.553Z,3003.75
2019-06-20T11:35:39.288Z,2998.12
2019-06-20T11:36:38.735Z,2986.88
2019-06-20T11:37:39.633Z,2986.88
2019-06-20T11:38:39.613Z,2880.00
2019-06-20T11:39:38.904Z,1473.75
2019-06-20T11:40:39.661Z,2846.25
2019-06-20T11:41:39.578Z,2818.12
2019-06-20T11:42:38.268Z,2784.38
2019-06-20T11:43:38.449Z,2857.50
2019-06-20T11:44:38.923Z,2880.00
2019-06-20T11:45:38.927Z,2891.25
2019-06-20T11:46:38.576Z,731.25
2019-06-20T11:47:38.480Z,708.75
2019-06-20T11:48:38.490Z,742.50
2019-06-20T11:49:38.237Z,781.88
2019-06-20T11:50:39.924Z,888.75
2019-06-20T11:51:38.174Z,2581.88
2019-06-20T11:52:41.045Z,2008.12
2019-06-20T11:53:38.583Z,871.88
2019-06-20T11:54:38.288Z,1867.50
2019-06-20T11:55:38.132Z,2767.50
2019-06-20T11:56:38.428Z,990.00
2019-06-20T11:57:38.125Z,1057.50
2019-06-20T11:58:38.114Z,916.88
2019-06-20T11:59:38.471Z,922.50
2019-06-20T12:00:38.089Z,2835.00
2019-06-20T12:01:39.588Z,2857.50
2019-06-20T12:02:40.499Z,2497.50
2019-06-20T12:03:39.195Z,2846.25
2019-06-20T12:04:38.249Z,2739.38
2019-06-20T12:05:38.461Z,2593.12
2019-06-20T12:06:47.047Z,2767.50
2019-06-20T12:07:39.555Z,2846.25
2019-06-20T12:08:39.083Z,2806.88
2019-06-20T12:09:39.565Z,2795.62
2019-06-20T12:10:39.226Z,2851.88
2019-06-20T12:11:39.077Z,2902.50
2019-06-20T12:12:39.060Z,2913.75
2019-06-20T12:13:39.336Z,2823.75
2019-06-20T12:14:39.407Z,2806.88
2019-06-20T12:15:38.028Z,2716.88
2019-06-20T12:16:39.167Z,2385.00
2019-06-20T12:17:38.197Z,1586.25
2019-06-20T12:18:39.760Z,759.38
2019-06-20T12:19:39.339Z,1608.75
2019-06-20T12:20:39.179Z,680.62
2019-06-20T12:21:37.981Z,736.88
2019-06-20T12:22:38.290Z,736.88
2019-06-20T12:23:39.016Z,703.12
2019-06-20T12:24:39.570Z,736.88